createdAt,value
2017-12-29T18:00:54.545Z,95865.55
2017-12-29T18:03:20.669Z,95856.98
2017-12-29T18:05:46.756Z,95851.53
2017-12-29T18:08:12.793Z,95859.00
2017-12-29T18:10:38.766Z,95851.09
2017-12-29T18:13:04.846Z,95850.56
2017-12-29T18:15:30.958Z,95847.09
2017-12-29T18:17:57.237Z,95840.45
2017-12-29T18:20:23.321Z,95831.38
2017-12-29T18:22:49.343Z,95836.38
2017-12-29T18:25:15.414Z,95823.28
2017-12-29T18:27:41.502Z,95823.12
2017-12-29T18:30:07.609Z,95822.94
2017-12-29T18:32:33.913Z,95825.55
2017-12-29T18:35:00.042Z,95821.89
2017-12-29T18:37:26.174Z,95824.01
2017-12-29T18:39:52.201Z,95823.03
2017-12-29T18:42:18.382Z,95820.81
2017-12-29T18:44:44.447Z,95823.29
2017-12-29T18:47:10.614Z,95823.27
2017-12-29T18:49:36.765Z,95818.77
2017-12-29T18:52:02.825Z,95814.52
2017-12-29T18:54:28.907Z,95803.63
2017-12-29T18:56:54.945Z,95798.09
2017-12-29T18:59:21.049Z,95797.84
2017-12-29T19:01:47.071Z,95794.34
2017-12-29T19:04:13.169Z,95797.19
2017-12-29T19:06:39.231Z,95792.69
2017-12-29T19:09:05.254Z,95778.63
2017-12-29T19:11:31.295Z,95771.37
2017-12-29T19:13:57.317Z,95777.20
2017-12-29T19:16:23.362Z,95774.50
2017-12-29T19:18:49.385Z,95772.14
2017-12-29T19:21:15.666Z,95767.38
2017-12-29T19:23:42.061Z,95767.75
2017-12-29T19:26:08.093Z,95761.97
2017-12-29T19:28:34.131Z,95762.14
2017-12-29T19:31:00.186Z,95753.36
2017-12-29T19:33:26.267Z,95753.47
2017-12-29T19:35:52.335Z,95743.80
2017-12-29T19:38:18.425Z,95736.76
2017-12-29T19:40:44.472Z,95736.17
2017-12-29T19:43:10.531Z,95738.25
2017-12-29T19:45:36.605Z,95733.34
2017-12-29T19:48:02.635Z,95740.16
2017-12-29T19:50:28.707Z,95740.82
2017-12-29T19:52:54.831Z,95730.64
2017-12-29T19:55:20.894Z,95729.32
2017-12-29T19:57:46.974Z,95720.86
2017-12-29T20:00:13.125Z,95717.63
2017-12-29T20:02:39.226Z,95714.75
2017-12-29T20:05:05.262Z,95711.86
2017-12-29T20:07:31.305Z,95711.39
2017-12-29T20:09:57.732Z,95712.63
2017-12-29T20:12:23.753Z,95712.07
2017-12-29T20:14:49.822Z,95715.19
2017-12-29T20:17:15.930Z,95709.93
2017-12-29T20:19:42.011Z,95701.09
2017-12-29T20:22:08.073Z,95697.50
2017-12-29T20:24:34.237Z,95701.39
2017-12-29T20:27:00.475Z,95693.63
2017-12-29T20:29:26.581Z,95697.77
2017-12-29T20:31:53.002Z,95700.42
2017-12-29T20:34:19.080Z,95699.80
2017-12-29T20:36:45.202Z,95694.77
2017-12-29T20:39:11.244Z,95691.97
2017-12-29T20:41:37.282Z,95689.62
2017-12-29T20:44:03.351Z,95687.30
2017-12-29T20:46:29.389Z,95692.42
2017-12-29T20:48:55.442Z,95689.80
2017-12-29T20:51:21.466Z,95690.48
2017-12-29T20:53:47.577Z,95689.97
2017-12-29T20:56:13.740Z,95688.54
2017-12-29T20:58:39.920Z,95687.24
2017-12-29T21:01:06.059Z,95697.37
2017-12-29T21:03:32.137Z,95679.09
2017-12-29T21:05:58.332Z,95672.33
2017-12-29T21:08:24.412Z,95672.47
2017-12-29T21:10:50.459Z,95673.74
2017-12-29T21:13:16.541Z,95673.20
2017-12-29T21:15:42.566Z,95668.17
2017-12-29T21:18:08.694Z,95662.83
2017-12-29T21:20:34.760Z,95662.69
2017-12-29T21:23:01.256Z,95669.36
2017-12-29T21:25:27.338Z,95667.52
2017-12-29T21:27:53.367Z,95673.98
2017-12-29T21:30:19.409Z,95670.36
2017-12-29T21:32:45.457Z,95665.02
2017-12-29T21:35:11.544Z,95675.96
2017-12-29T21:37:37.573Z,95674.23
2017-12-29T21:40:03.566Z,95679.17
2017-12-29T21:42:29.601Z,95680.91
2017-12-29T21:44:55.720Z,95684.16
2017-12-29T21:47:21.760Z,95695.65
2017-12-29T21:49:47.841Z,95695.65
2017-12-29T21:52:13.951Z,95703.41
2017-12-29T21:54:40.126Z,95706.16
2017-12-29T21:57:06.299Z,95709.92
2017-12-29T21:59:32.463Z,95712.77
2017-12-29T22:01:58.515Z,95713.58
2017-12-29T22:04:24.575Z,95713.33
2017-12-29T22:06:50.677Z,95710.22
2017-12-29T22:09:16.761Z,95715.26
2017-12-29T22:11:42.852Z,95722.48
2017-12-29T22:14:09.030Z,95722.23
2017-12-29T22:16:35.137Z,95721.02
2017-12-29T22:19:01.191Z,95723.38
2017-12-29T22:21:27.251Z,95720.77
2017-12-29T22:23:53.342Z,95726.45
2017-12-29T22:26:19.380Z,95720.55
2017-12-29T22:28:45.445Z,95723.00
2017-12-29T22:31:11.526Z,95729.03
2017-12-29T22:33:37.595Z,95723.34
2017-12-29T22:36:04.403Z,95740.51
2017-12-29T22:38:31.322Z,95740.10
2017-12-29T22:40:58.204Z,95730.61
2017-12-29T22:43:25.000Z,95735.57
2017-12-29T22:45:51.051Z,95733.73
2017-12-29T22:48:17.100Z,95728.43
2017-12-29T22:50:43.191Z,95731.89
2017-12-29T22:53:09.217Z,95734.52
2017-12-29T22:55:35.231Z,95741.22
2017-12-29T22:58:01.314Z,95743.61
2017-12-29T23:00:27.385Z,95747.36
2017-12-29T23:02:53.541Z,95750.36
2017-12-29T23:05:19.539Z,95753.95
2017-12-29T23:07:45.581Z,95751.59
2017-12-29T23:10:11.682Z,95758.09
2017-12-29T23:12:37.721Z,95755.48
2017-12-29T23:15:03.762Z,95763.40
2017-12-29T23:17:29.801Z,95768.83
2017-12-29T23:19:55.847Z,95766.77
2017-12-29T23:22:21.926Z,95769.51
2017-12-29T23:24:48.043Z,95765.62
2017-12-29T23:27:14.196Z,95773.66
2017-12-29T23:29:40.225Z,95776.50
2017-12-29T23:32:06.318Z,95775.83
2017-12-29T23:34:32.599Z,95771.23
2017-12-29T23:36:58.659Z,95769.30
2017-12-29T23:39:24.722Z,95770.24
2017-12-29T23:41:50.773Z,95771.04
2017-12-29T23:44:16.867Z,95778.05
2017-12-29T23:46:42.921Z,95773.75
2017-12-29T23:49:08.972Z,95781.38
2017-12-29T23:51:35.032Z,95780.21
2017-12-29T23:54:01.059Z,95782.42
2017-12-29T23:56:27.104Z,95785.93
2017-12-29T23:58:53.201Z,95788.51
